Time;durP1;ratioP1;P1;durP2;ratioP2;P2;SDS_P1;SDS_P2;PMS_P1;PMS_P2;Temp;Humidity;BMP_temperature;BMP_pressure;BME280_temperature;BME280_humidity;BME280_pressure;Samples;Min_cycle;Max_cycle;Signal;HPM_P1;HPM_P2
2022/06/17 00:01:44;;;;;;;8.98;6.82;;;17.50;99.90;;;;;;5077641;28;20149;-64
2022/06/17 00:04:09;;;;;;;7.82;6.43;;;17.50;99.90;;;;;;5072637;28;20040;-64
2022/06/17 00:06:49;;;;;;;7.13;6.40;;;17.50;99.90;;;;;;5074328;28;20036;-64
2022/06/17 00:09:17;;;;;;;12.40;6.40;;;17.40;99.90;;;;;;5073926;28;20067;-65
2022/06/17 00:11:43;;;;;;;9.68;6.55;;;17.30;99.90;;;;;;5073287;28;20048;-65
2022/06/17 00:14:14;;;;;;;9.32;6.85;;;17.30;99.90;;;;;;5073859;28;20040;-64
2022/06/17 00:16:40;;;;;;;9.60;6.40;;;17.30;99.90;;;;;;5074116;28;20041;-64
2022/06/17 00:19:06;;;;;;;8.73;6.90;;;17.20;99.90;;;;;;5074794;28;20106;-64
2022/06/17 00:21:35;;;;;;;9.60;6.57;;;17.20;99.90;;;;;;5076085;28;20032;-64
2022/06/17 00:24:13;;;;;;;11.18;7.00;;;17.10;99.90;;;;;;5072571;28;20071;-64
2022/06/17 00:26:38;;;;;;;13.68;6.18;;;17.10;99.90;;;;;;5071097;28;20036;-64
2022/06/17 00:29:04;;;;;;;9.40;7.07;;;17.10;99.90;;;;;;5074899;28;20146;-64
2022/06/17 00:31:30;;;;;;;9.52;7.30;;;17.00;99.90;;;;;;5074705;28;20044;-64
2022/06/17 00:33:55;;;;;;;12.02;7.45;;;17.00;99.90;;;;;;5071605;28;20040;-64
2022/06/17 00:36:21;;;;;;;13.07;7.50;;;17.00;99.90;;;;;;5073968;28;20036;-64
2022/06/17 00:38:47;;;;;;;10.55;7.10;;;16.90;99.90;;;;;;5071851;28;20032;-63
2022/06/17 00:41:24;;;;;;;9.68;6.70;;;16.90;99.90;;;;;;5074798;28;20046;-64
2022/06/17 00:43:50;;;;;;;9.38;7.20;;;16.90;99.90;;;;;;5072950;28;20112;-63
2022/06/17 00:46:21;;;;;;;8.38;6.60;;;16.90;99.90;;;;;;5071865;28;20127;-64
2022/06/17 00:49:03;;;;;;;7.55;6.35;;;16.80;99.90;;;;;;5072169;28;20040;-63
2022/06/17 00:51:35;;;;;;;11.27;7.60;;;16.70;99.90;;;;;;5099932;28;20375;-64
2022/06/17 00:54:25;;;;;;;9.70;7.43;;;16.80;99.90;;;;;;5077130;28;20036;-63
2022/06/17 00:56:51;;;;;;;13.95;7.20;;;16.80;99.90;;;;;;5074164;28;20055;-63
2022/06/17 00:59:16;;;;;;;9.43;6.93;;;16.80;99.90;;;;;;5074690;28;20040;-63
2022/06/17 01:02:05;;;;;;;7.78;6.82;;;16.80;99.90;;;;;;5075863;28;20039;-64
2022/06/17 01:04:45;;;;;;;9.63;7.38;;;16.80;99.90;;;;;;5069517;28;20036;-63
2022/06/17 01:07:25;;;;;;;8.68;7.32;;;16.80;99.90;;;;;;5068515;28;20053;-64
2022/06/17 01:09:58;;;;;;;11.27;8.13;;;16.70;99.90;;;;;;5072140;28;20055;-64
2022/06/17 01:12:45;;;;;;;11.63;8.00;;;16.70;99.90;;;;;;5074592;28;20051;-64
2022/06/17 01:15:16;;;;;;;14.68;8.55;;;16.60;99.90;;;;;;5071046;28;20305;-64
2022/06/17 01:17:42;;;;;;;11.90;8.55;;;16.60;99.90;;;;;;5073895;28;20119;-64
2022/06/17 01:20:11;;;;;;;9.38;7.70;;;16.60;99.90;;;;;;5075217;28;20112;-63
2022/06/17 01:22:43;;;;;;;10.32;7.88;;;16.60;99.90;;;;;;5075160;28;20516;-64
2022/06/17 01:25:19;;;;;;;10.63;8.02;;;16.60;99.90;;;;;;5071180;28;20473;-64
2022/06/17 01:28:01;;;;;;;10.50;8.10;;;16.50;99.90;;;;;;5069988;28;20044;-64
2022/06/17 01:30:39;;;;;;;9.48;8.13;;;16.50;99.90;;;;;;5068214;28;20489;-64
2022/06/17 01:33:26;;;;;;;12.77;8.45;;;16.40;99.90;;;;;;5073959;28;20060;-63
2022/06/17 01:36:19;;;;;;;10.63;8.40;;;16.30;99.90;;;;;;5070052;28;20052;-63
2022/06/17 01:38:49;;;;;;;9.55;8.50;;;16.30;99.90;;;;;;5071137;28;20031;-63
2022/06/17 01:41:15;;;;;;;9.75;8.02;;;16.20;99.90;;;;;;5074186;28;20039;-63
2022/06/17 01:43:41;;;;;;;14.52;8.70;;;16.20;99.90;;;;;;5074332;28;20033;-64
2022/06/17 01:46:13;;;;;;;11.32;8.82;;;16.10;99.90;;;;;;5071006;28;20135;-64
2022/06/17 01:48:45;;;;;;;10.43;8.43;;;16.10;99.90;;;;;;5074389;28;20044;-64
2022/06/17 01:51:14;;;;;;;10.52;8.35;;;16.10;99.90;;;;;;5074512;28;20036;-64
2022/06/17 01:53:46;;;;;;;11.82;8.93;;;16.10;99.90;;;;;;5073601;28;20191;-64
2022/06/17 01:56:15;;;;;;;11.98;8.95;;;16.00;99.90;;;;;;5072018;28;20063;-64
2022/06/17 01:59:16;;;;;;;13.95;8.95;;;16.00;99.90;;;;;;5071428;28;20051;-64
2022/06/17 02:01:47;;;;;;;13.18;9.82;;;16.00;99.90;;;;;;5061748;28;20044;-63
2022/06/17 02:04:23;;;;;;;12.48;9.98;;;15.90;99.90;;;;;;5071544;28;20033;-63
2022/06/17 02:06:55;;;;;;;13.93;9.63;;;16.00;99.90;;;;;;5071405;28;20040;-64
2022/06/17 02:09:21;;;;;;;13.55;9.63;;;16.00;99.90;;;;;;5074074;28;20060;-64
2022/06/17 02:11:48;;;;;;;14.80;10.45;;;15.90;99.90;;;;;;5073988;28;20040;-64
2022/06/17 02:14:14;;;;;;;12.48;10.38;;;15.90;99.90;;;;;;5073058;28;20117;-63
2022/06/17 02:16:47;;;;;;;12.55;9.80;;;15.90;99.90;;;;;;5073557;28;20479;-64
2022/06/17 02:19:13;;;;;;;15.98;11.15;;;15.90;99.90;;;;;;5074164;28;20039;-64
2022/06/17 02:22:00;;;;;;;14.07;10.45;;;15.80;99.90;;;;;;5076436;28;20028;-64
2022/06/17 02:24:27;;;;;;;14.07;10.43;;;15.80;99.90;;;;;;5073380;28;20413;-63
2022/06/17 02:26:54;;;;;;;12.75;10.40;;;15.80;99.90;;;;;;5071078;28;20098;-64
2022/06/17 02:29:21;;;;;;;13.30;10.88;;;15.80;99.90;;;;;;5073710;28;20078;-64
2022/06/17 02:31:47;;;;;;;11.38;10.18;;;15.80;99.90;;;;;;5076265;28;20046;-63
2022/06/17 02:34:16;;;;;;;13.60;10.35;;;15.70;99.90;;;;;;5074193;28;20116;-63
2022/06/17 02:36:52;;;;;;;14.18;11.10;;;15.70;99.90;;;;;;5076213;28;20304;-64
2022/06/17 02:39:18;;;;;;;13.30;9.70;;;15.70;99.90;;;;;;5073916;28;20353;-63
2022/06/17 02:41:47;;;;;;;12.52;10.18;;;15.70;99.90;;;;;;5076584;28;20036;-63
2022/06/17 02:44:17;;;;;;;12.65;10.07;;;15.70;99.90;;;;;;5076850;28;20463;-64
2022/06/17 02:46:44;;;;;;;13.95;10.55;;;15.70;99.90;;;;;;5073885;28;20101;-63
2022/06/17 02:49:25;;;;;;;12.80;10.30;;;15.60;99.90;;;;;;5076330;28;20036;-64
2022/06/17 02:51:53;;;;;;;12.60;10.52;;;15.80;99.90;;;;;;5074072;28;20068;-63
2022/06/17 02:54:31;;;;;;;14.05;10.75;;;15.70;99.90;;;;;;5076469;28;20155;-63
2022/06/17 02:56:58;;;;;;;13.95;11.02;;;15.70;99.90;;;;;;5076129;28;20462;-63
2022/06/17 02:59:30;;;;;;;12.15;10.68;;;15.70;99.90;;;;;;5075976;28;20028;-64
2022/06/17 03:02:07;;;;;;;12.43;11.00;;;15.70;99.90;;;;;;5077725;28;20119;-64
2022/06/17 03:04:33;;;;;;;15.07;11.25;;;15.70;99.90;;;;;;5071829;28;20037;-63
2022/06/17 03:07:00;;;;;;;15.15;11.15;;;15.70;99.90;;;;;;5076401;28;20040;-63
2022/06/17 03:09:27;;;;;;;14.90;10.93;;;15.70;99.90;;;;;;5073521;28;20499;-63
2022/06/17 03:12:06;;;;;;;14.50;11.25;;;15.70;99.90;;;;;;5075643;28;20040;-63
2022/06/17 03:14:39;;;;;;;13.25;10.15;;;15.70;99.90;;;;;;5072869;28;20036;-64
2022/06/17 03:17:10;;;;;;;13.05;10.70;;;15.80;99.90;;;;;;5073381;28;20473;-64
2022/06/17 03:19:37;;;;;;;12.95;10.68;;;15.80;99.90;;;;;;5075963;28;20462;-63
2022/06/17 03:22:07;;;;;;;11.73;10.52;;;15.70;99.90;;;;;;5078586;28;20139;-64
2022/06/17 03:24:49;;;;;;;12.93;10.70;;;15.70;99.90;;;;;;5076128;28;20032;-64
2022/06/17 03:27:35;;;;;;;12.57;11.02;;;15.70;99.90;;;;;;5072117;28;20461;-63
2022/06/17 03:30:01;;;;;;;12.43;10.38;;;15.70;99.90;;;;;;5071878;28;20047;-63
2022/06/17 03:32:33;;;;;;;14.55;10.90;;;15.70;99.90;;;;;;5075408;28;20361;-63
2022/06/17 03:34:59;;;;;;;14.38;11.23;;;15.60;99.90;;;;;;5075201;28;20036;-62
2022/06/17 03:37:34;;;;;;;18.70;11.65;;;15.60;99.90;;;;;;5072390;28;20033;-62
2022/06/17 03:40:14;;;;;;;12.45;10.98;;;15.60;99.90;;;;;;5071314;28;20120;-63
2022/06/17 03:43:00;;;;;;;16.02;11.55;;;15.60;99.90;;;;;;5071550;28;20139;-63
2022/06/17 03:45:46;;;;;;;12.80;11.50;;;15.60;99.90;;;;;;5071068;28;20028;-63
2022/06/17 03:48:33;;;;;;;14.13;10.82;;;15.50;99.90;;;;;;5075285;28;20040;-64
2022/06/17 03:50:59;;;;;;;13.52;11.20;;;15.60;99.90;;;;;;5073076;28;20040;-63
2022/06/17 03:53:31;;;;;;;15.07;12.07;;;15.60;99.90;;;;;;5075412;28;20055;-64
2022/06/17 03:56:06;;;;;;;16.58;11.70;;;15.60;99.90;;;;;;5075823;28;20127;-63
2022/06/17 03:58:33;;;;;;;23.77;12.90;;;15.70;99.90;;;;;;5070648;28;20036;-63
2022/06/17 04:01:24;;;;;;;28.90;13.85;;;15.70;99.90;;;;;;5075201;28;20055;-63
2022/06/17 04:04:00;;;;;;;44.28;14.85;;;15.70;99.90;;;;;;5068976;28;20083;-63
2022/06/17 04:06:36;;;;;;;23.30;11.77;;;15.90;99.90;;;;;;5072599;28;20047;-64
2022/06/17 04:09:13;;;;;;;17.88;11.50;;;15.90;99.90;;;;;;5075564;28;20043;-63
2022/06/17 04:11:40;;;;;;;15.15;10.70;;;16.00;99.90;;;;;;5072453;28;20079;-63
2022/06/17 04:14:16;;;;;;;16.13;10.85;;;16.10;99.90;;;;;;5072573;28;20072;-63
2022/06/17 04:17:02;;;;;;;15.10;10.80;;;16.10;99.90;;;;;;5074603;28;20457;-63
2022/06/17 04:19:29;;;;;;;19.92;11.63;;;16.10;99.90;;;;;;5075276;28;20078;-63
2022/06/17 04:22:17;;;;;;;20.20;11.75;;;16.10;99.90;;;;;;5075323;28;20034;-63
2022/06/17 04:24:46;;;;;;;18.88;11.48;;;16.20;99.90;;;;;;5074530;28;20102;-64
2022/06/17 04:27:13;;;;;;;24.60;13.55;;;16.20;99.90;;;;;;5071969;28;20037;-63
2022/06/17 04:29:51;;;;;;;19.77;11.13;;;16.20;99.90;;;;;;5074982;28;20029;-64
2022/06/17 04:32:24;;;;;;;20.92;11.73;;;16.30;99.90;;;;;;5074405;28;20067;-63
2022/06/17 04:34:50;;;;;;;17.48;10.45;;;16.30;99.90;;;;;;5073419;28;20036;-63
2022/06/17 04:37:20;;;;;;;15.38;10.48;;;16.30;99.90;;;;;;5073096;28;20353;-63
2022/06/17 04:39:58;;;;;;;15.27;11.15;;;16.30;99.90;;;;;;5072324;28;20487;-63
2022/06/17 04:42:34;;;;;;;18.30;11.20;;;16.30;99.90;;;;;;5072695;28;20032;-62
2022/06/17 04:45:00;;;;;;;14.68;10.30;;;16.30;99.90;;;;;;5073350;28;20037;-62
2022/06/17 04:47:32;;;;;;;16.35;11.95;;;16.40;99.90;;;;;;5073922;28;20024;-62
2022/06/17 04:50:11;;;;;;;15.88;11.10;;;16.40;99.90;;;;;;5076006;28;20060;-62
2022/06/17 04:52:43;;;;;;;17.25;11.38;;;16.50;99.90;;;;;;5074860;28;20078;-62
2022/06/17 04:55:17;;;;;;;16.23;11.25;;;16.60;99.90;;;;;;5049162;28;20140;-62
2022/06/17 04:57:42;;;;;;;;;;;16.60;99.90;;;;;;5089096;28;20087;-62
2022/06/17 05:00:26;;;;;;;12.80;11.02;;;16.60;99.90;;;;;;5085981;28;19947;-62
2022/06/17 05:02:53;;;;;;;14.40;10.45;;;16.70;99.90;;;;;;5086116;28;20031;-62
2022/06/17 05:05:28;;;;;;;14.40;10.85;;;16.80;99.90;;;;;;5088707;28;20040;-62
2022/06/17 05:07:55;;;;;;;13.20;10.90;;;16.80;99.90;;;;;;5071237;28;20098;-62
2022/06/17 05:10:37;;;;;;;14.88;11.18;;;17.00;99.90;;;;;;5085621;28;20058;-63
2022/06/17 05:13:10;;;;;;;13.77;10.55;;;17.00;99.90;;;;;;5088469;28;20477;-62
2022/06/17 05:15:37;;;;;;;13.48;11.07;;;17.00;99.90;;;;;;5085218;28;20040;-62
2022/06/17 05:18:03;;;;;;;12.15;10.05;;;17.00;99.90;;;;;;5089873;28;20041;-63
2022/06/17 05:20:28;;;;;;;13.65;10.80;;;17.10;99.90;;;;;;5086167;28;20031;-63
2022/06/17 05:22:59;;;;;;;13.02;10.50;;;17.10;99.90;;;;;;5087214;28;20085;-66
2022/06/17 05:25:27;;;;;;;12.05;10.30;;;17.10;99.90;;;;;;5088462;28;20028;-64
2022/06/17 05:27:54;;;;;;;15.77;9.93;;;17.20;99.90;;;;;;5087184;28;20077;-62
2022/06/17 05:30:20;;;;;;;12.93;10.13;;;17.30;99.90;;;;;;5087533;28;20037;-63
2022/06/17 05:32:49;;;;;;;14.50;9.90;;;17.30;99.90;;;;;;5086464;28;20028;-63
2022/06/17 05:35:16;;;;;;;12.43;9.18;;;17.40;99.90;;;;;;5090748;28;20036;-62
2022/06/17 05:37:42;;;;;;;11.85;9.55;;;17.40;99.90;;;;;;5089174;28;20392;-62
2022/06/17 05:40:09;;;;;;;12.70;9.55;;;17.50;99.90;;;;;;5080610;28;20329;-63
2022/06/17 05:42:36;;;;;;;11.70;9.30;;;17.60;99.90;;;;;;5086844;28;20372;-62
2022/06/17 05:45:02;;;;;;;11.05;9.20;;;17.60;99.90;;;;;;5090370;28;20032;-62
2022/06/17 05:47:28;;;;;;;14.18;9.40;;;17.70;99.90;;;;;;5090231;28;20032;-63
2022/06/17 05:49:54;;;;;;;10.48;8.43;;;17.80;99.90;;;;;;5088843;28;20354;-62
2022/06/17 05:52:21;;;;;;;12.00;9.15;;;17.90;99.90;;;;;;5086620;28;21535;-63
2022/06/17 05:54:46;;;;;;;12.40;9.77;;;17.90;99.90;;;;;;5057465;28;20570;-62
2022/06/17 05:57:12;;;;;;;12.20;10.13;;;18.10;99.90;;;;;;5068480;28;20033;-62
2022/06/17 05:59:38;;;;;;;14.15;9.27;;;18.20;99.90;;;;;;5067539;28;20036;-63
2022/06/17 06:02:04;;;;;;;13.63;9.93;;;18.30;99.90;;;;;;5064288;28;20102;-61
2022/06/17 06:04:31;;;;;;;13.75;10.23;;;18.30;99.90;;;;;;5065872;28;20373;-62
2022/06/17 06:06:57;;;;;;;13.27;9.38;;;18.50;99.90;;;;;;5072915;28;20099;-62
2022/06/17 06:09:23;;;;;;;13.00;9.45;;;18.70;99.90;;;;;;5073542;28;20047;-65
2022/06/17 06:11:49;;;;;;;14.35;9.60;;;18.90;99.90;;;;;;5068054;28;20033;-62
2022/06/17 06:14:15;;;;;;;15.68;10.13;;;19.10;99.90;;;;;;5063425;28;20079;-64
2022/06/17 06:16:40;;;;;;;12.45;9.38;;;19.30;99.90;;;;;;5052636;28;20064;-62
2022/06/17 06:19:06;;;;;;;13.73;10.32;;;19.40;99.90;;;;;;5073949;28;20036;-64
2022/06/17 06:21:32;;;;;;;16.15;10.38;;;19.60;99.90;;;;;;5068030;28;20024;-64
2022/06/17 06:23:57;;;;;;;13.85;10.45;;;19.70;99.90;;;;;;5070304;28;20469;-65
2022/06/17 06:26:24;;;;;;;14.23;9.73;;;19.90;99.90;;;;;;5053702;28;20040;-65
2022/06/17 06:28:50;;;;;;;14.43;10.82;;;19.90;99.90;;;;;;5072340;28;20476;-65
2022/06/17 06:31:33;;;;;;;14.50;10.52;;;20.00;99.90;;;;;;5068707;28;20067;-66
2022/06/17 06:33:59;;;;;;;14.65;10.23;;;20.00;99.90;;;;;;5070668;28;20028;-64
2022/06/17 06:36:25;;;;;;;13.80;9.85;;;20.20;99.90;;;;;;5068225;28;20112;-64
2022/06/17 06:38:51;;;;;;;14.38;10.02;;;20.50;99.90;;;;;;5071616;28;20032;-63
2022/06/17 06:41:21;;;;;;;13.85;9.98;;;20.90;99.90;;;;;;5066755;28;20469;-63
2022/06/17 06:43:48;;;;;;;15.85;9.93;;;21.30;99.90;;;;;;5067251;28;20028;-64
2022/06/17 06:46:16;;;;;;;16.33;9.05;;;21.60;99.90;;;;;;5070935;28;20040;-64
2022/06/17 06:48:41;;;;;;;17.27;10.05;;;21.90;99.90;;;;;;5073177;28;20075;-65
2022/06/17 06:51:07;;;;;;;14.77;9.18;;;21.80;99.90;;;;;;5070541;28;20068;-64
2022/06/17 06:53:33;;;;;;;15.32;9.20;;;21.70;99.90;;;;;;5072708;28;20064;-64
2022/06/17 06:55:58;;;;;;;12.90;8.75;;;21.70;99.90;;;;;;5070759;28;20040;-65
2022/06/17 06:58:25;;;;;;;11.85;8.00;;;21.60;99.90;;;;;;5069360;28;20036;-64
2022/06/17 07:00:56;;;;;;;12.00;7.88;;;21.60;99.90;;;;;;5082493;28;20143;-65
2022/06/17 07:03:22;;;;;;;12.27;8.35;;;21.60;99.90;;;;;;5070639;28;20041;-64
2022/06/17 07:05:52;;;;;;;13.93;8.32;;;21.80;99.90;;;;;;5072481;28;20047;-63
2022/06/17 07:08:20;;;;;;;12.18;7.72;;;21.90;99.90;;;;;;5072554;28;20040;-63
2022/06/17 07:10:48;;;;;;;13.57;7.35;;;22.10;99.90;;;;;;5048382;28;20058;-63
2022/06/17 07:13:14;;;;;;;11.27;7.30;;;22.30;99.90;;;;;;5069281;28;20048;-64
2022/06/17 07:15:42;;;;;;;10.40;6.88;;;22.40;99.90;;;;;;5069904;28;20056;-65
2022/06/17 07:18:18;;;;;;;9.32;6.50;;;22.40;99.90;;;;;;5067527;28;20338;-62
2022/06/17 07:20:47;;;;;;;11.02;6.00;;;22.40;99.90;;;;;;5067760;28;20041;-62
2022/06/17 07:23:25;;;;;;;9.60;5.93;;;22.50;99.90;;;;;;5053392;28;20045;-63
2022/06/17 07:25:52;;;;;;;10.95;5.57;;;22.60;99.90;;;;;;5065325;28;20090;-63
2022/06/17 07:28:21;;;;;;;9.48;6.25;;;22.80;99.90;;;;;;5071760;28;20067;-63
2022/06/17 07:30:49;;;;;;;9.90;5.32;;;23.00;99.90;;;;;;5063197;28;20040;-62
2022/06/17 07:33:16;;;;;;;10.48;5.72;;;23.30;99.90;;;;;;5072234;28;20684;-63
2022/06/17 07:35:44;;;;;;;8.18;5.45;;;23.50;99.90;;;;;;5071189;28;20040;-67
2022/06/17 07:41:04;;;;;;;9.13;5.45;;;23.60;98.60;;;;;;5054587;28;20151;-65
2022/06/17 07:43:30;;;;;;;9.25;5.00;;;23.70;99.20;;;;;;5071195;28;20043;-65
2022/06/17 07:45:56;;;;;;;9.65;5.47;;;23.90;99.20;;;;;;5070359;28;20040;-65
2022/06/17 07:48:22;;;;;;;9.02;5.00;;;23.70;98.80;;;;;;5071453;28;20036;-65
2022/06/17 07:50:48;;;;;;;8.25;5.40;;;23.70;98.90;;;;;;5070244;28;20032;-65
2022/06/17 07:53:14;;;;;;;10.63;5.55;;;23.70;98.70;;;;;;5063738;28;20473;-66
2022/06/17 07:55:42;;;;;;;9.80;5.45;;;23.70;98.80;;;;;;5089742;28;20119;-66
2022/06/17 07:58:10;;;;;;;8.85;5.03;;;23.70;98.60;;;;;;5083816;28;20359;-67
2022/06/17 08:00:41;;;;;;;8.75;4.95;;;23.70;98.60;;;;;;5089027;28;20032;-65
2022/06/17 08:03:07;;;;;;;8.63;4.90;;;23.90;98.90;;;;;;5066915;28;20551;-65
2022/06/17 08:05:34;;;;;;;8.07;5.07;;;24.10;98.70;;;;;;5091482;28;20032;-64
2022/06/17 08:08:03;;;;;;;7.95;4.93;;;24.10;98.60;;;;;;5088974;28;20046;-64
2022/06/17 08:10:32;;;;;;;7.80;5.35;;;24.10;98.60;;;;;;5072746;28;20648;-64
2022/06/17 08:12:57;;;;;;;7.15;5.45;;;24.20;98.50;;;;;;5089740;28;20326;-64
2022/06/17 08:15:23;;;;;;;10.35;5.38;;;24.20;98.20;;;;;;5087944;28;20101;-65
2022/06/17 08:17:49;;;;;;;9.50;5.63;;;24.30;98.10;;;;;;5092126;28;20063;-64
2022/06/17 08:20:19;;;;;;;9.27;5.57;;;24.60;98.10;;;;;;5072585;28;20064;-64
2022/06/17 08:22:45;;;;;;;10.15;5.57;;;24.80;98.20;;;;;;5069724;28;20356;-64
2022/06/17 08:25:11;;;;;;;7.43;5.00;;;24.90;97.60;;;;;;5090025;28;20105;-63
2022/06/17 08:27:48;;;;;;;9.05;5.50;;;25.00;97.70;;;;;;5089210;28;20036;-64
2022/06/17 08:30:15;;;;;;;10.05;5.70;;;25.20;97.20;;;;;;5087096;28;20504;-64
2022/06/17 08:32:48;;;;;;;9.88;5.20;;;25.40;97.60;;;;;;5090047;28;20042;-63
2022/06/17 08:35:20;;;;;;;8.50;5.20;;;25.50;97.20;;;;;;5091561;28;20044;-63
2022/06/17 08:37:48;;;;;;;8.50;5.00;;;25.80;97.40;;;;;;5084344;28;20343;-64
2022/06/17 08:40:44;;;;;;;7.30;5.40;;;25.60;96.30;;;;;;5089079;28;20035;-64
2022/06/17 08:43:44;;;;;;;16.00;5.85;;;25.60;96.60;;;;;;5088411;28;20028;-65
2022/06/17 08:46:43;;;;;;;7.75;5.30;;;25.60;96.30;;;;;;5085160;28;20136;-63
2022/06/17 08:49:39;;;;;;;10.88;5.45;;;25.60;96.40;;;;;;5069132;28;20051;-64
2022/06/17 08:52:40;;;;;;;8.25;5.03;;;25.50;96.80;;;;;;5089750;28;20036;-63
2022/06/17 08:55:19;;;;;;;7.25;4.90;;;25.60;96.50;;;;;;5040219;28;20128;-63
2022/06/17 08:57:56;;;;;;;10.02;5.32;;;25.80;96.30;;;;;;5084491;28;20040;-64
2022/06/17 09:00:29;;;;;;;10.75;4.88;;;25.80;96.00;;;;;;5088025;28;20036;-63
2022/06/17 09:03:13;;;;;;;9.68;5.43;;;25.80;96.10;;;;;;5089958;28;20038;-63
2022/06/17 09:05:43;;;;;;;5.78;4.43;;;25.70;96.30;;;;;;5089065;28;20126;-64
2022/06/17 09:08:32;;;;;;;6.97;4.60;;;25.80;96.20;;;;;;5086248;28;20032;-66
2022/06/17 09:11:35;;;;;;;9.10;4.72;;;26.00;95.90;;;;;;5084863;28;20660;-66
2022/06/17 09:14:21;;;;;;;10.80;4.22;;;25.90;95.60;;;;;;5068749;28;20127;-66
2022/06/17 09:17:05;;;;;;;5.38;4.28;;;25.90;95.80;;;;;;5085836;28;20097;-66
2022/06/17 09:19:32;;;;;;;;;;;25.90;95.60;;;;;;5091831;28;20070;-66
2022/06/17 09:22:16;;;;;;;7.75;4.82;;;26.10;95.90;;;;;;5067997;28;19920;-66
2022/06/17 09:24:43;;;;;;;7.80;3.95;;;26.20;95.50;;;;;;5070586;28;20093;-66
2022/06/17 09:27:18;;;;;;;7.18;4.25;;;26.20;96.10;;;;;;5090070;28;20040;-66
2022/06/17 09:29:55;;;;;;;8.82;4.50;;;26.40;95.90;;;;;;5090040;28;20440;-67
2022/06/17 09:32:31;;;;;;;6.40;4.28;;;26.60;95.60;;;;;;5086799;28;20496;-66
2022/06/17 09:35:02;;;;;;;6.32;4.10;;;26.90;95.70;;;;;;5072848;28;20040;-67
2022/06/17 09:37:51;;;;;;;10.07;3.78;;;27.00;95.40;;;;;;5084820;28;20040;-65
2022/06/17 09:40:23;;;;;;;7.90;4.25;;;27.00;95.30;;;;;;5088129;28;20402;-65
2022/06/17 09:43:18;;;;;;;7.00;3.93;;;26.90;94.70;;;;;;5089680;28;20133;-65
2022/06/17 09:46:05;;;;;;;7.07;3.63;;;26.90;94.30;;;;;;5093466;28;20078;-66
2022/06/17 09:48:57;;;;;;;7.97;4.07;;;26.90;94.90;;;;;;5090470;28;20036;-65
2022/06/17 09:51:34;;;;;;;8.70;3.80;;;27.20;94.70;;;;;;5090752;28;20111;-64
2022/06/17 09:54:41;;;;;;;6.10;3.58;;;27.50;94.70;;;;;;5078677;28;20053;-65
2022/06/17 09:57:18;;;;;;;9.23;3.65;;;27.60;94.40;;;;;;5064100;28;20464;-65
2022/06/17 09:59:55;;;;;;;9.48;3.83;;;27.70;94.10;;;;;;5071495;28;20112;-65
2022/06/17 10:02:49;;;;;;;7.40;3.72;;;27.80;94.40;;;;;;5070407;28;20028;-65
2022/06/17 10:05:40;;;;;;;8.50;3.95;;;27.90;94.30;;;;;;5043663;28;20052;-64
2022/06/17 10:08:36;;;;;;;6.63;3.70;;;27.80;94.10;;;;;;5050623;28;20382;-65
2022/06/17 10:11:05;;;;;;;10.32;4.18;;;27.90;94.10;;;;;;5068252;28;20398;-64
2022/06/17 10:13:59;;;;;;;8.05;4.25;;;27.80;93.80;;;;;;5082538;28;20072;-65
2022/06/17 10:19:44;;;;;;;8.13;4.75;;;27.70;94.50;;;;;;5056498;28;20044;-65
2022/06/17 10:22:34;;;;;;;5.22;4.05;;;27.50;93.70;;;;;;5068037;28;20034;-66
2022/06/17 10:25:31;;;;;;;7.70;4.55;;;27.40;94.10;;;;;;5071118;28;20044;-64
2022/06/17 10:27:59;;;;;;;7.82;4.10;;;27.50;94.30;;;;;;5070896;28;20029;-66
2022/06/17 10:30:36;;;;;;;6.93;4.50;;;27.60;94.60;;;;;;5072249;28;20044;-64
2022/06/17 10:33:02;;;;;;;7.18;4.75;;;27.80;94.40;;;;;;5072869;28;20090;-65
2022/06/17 10:35:33;;;;;;;8.57;4.38;;;27.80;94.20;;;;;;5073411;28;20025;-65
2022/06/17 10:38:04;;;;;;;7.88;4.40;;;27.90;94.50;;;;;;5069148;28;20521;-65
2022/06/17 10:40:33;;;;;;;6.93;4.30;;;27.90;94.70;;;;;;5066119;28;20104;-65
2022/06/17 10:43:05;;;;;;;8.23;4.57;;;27.90;94.50;;;;;;5069628;28;20025;-66
2022/06/17 10:45:31;;;;;;;6.35;4.00;;;27.90;93.90;;;;;;5068531;28;20040;-65
2022/06/17 10:48:09;;;;;;;7.10;3.75;;;27.90;93.90;;;;;;5072333;28;20083;-64
2022/06/17 10:50:34;;;;;;;10.55;4.45;;;28.00;94.10;;;;;;5049375;28;20040;-65
2022/06/17 10:53:14;;;;;;;6.47;4.05;;;28.20;93.70;;;;;;5084118;28;20051;-65
2022/06/17 10:55:47;;;;;;;9.48;3.95;;;28.40;93.70;;;;;;5111848;28;20043;-66
2022/06/17 10:58:23;;;;;;;7.63;3.40;;;28.40;93.50;;;;;;5107108;28;20111;-65
2022/06/17 11:01:03;;;;;;;7.68;4.10;;;28.60;93.90;;;;;;5103038;28;20040;-65
2022/06/17 11:03:31;;;;;;;7.18;4.00;;;28.60;93.10;;;;;;5110158;28;20127;-65
2022/06/17 11:06:09;;;;;;;8.77;4.22;;;28.60;93.00;;;;;;5113799;28;20085;-65
2022/06/17 11:08:43;;;;;;;8.00;3.85;;;28.50;92.30;;;;;;5121808;27;20118;-65
2022/06/17 11:13:57;;;;;;;4.68;3.25;;;28.60;93.10;;;;;;5108362;28;20040;-65
2022/06/17 11:16:25;;;;;;;5.72;3.55;;;28.60;92.70;;;;;;5113027;28;20096;-64
2022/06/17 11:19:02;;;;;;;6.50;3.13;;;28.60;92.40;;;;;;5113648;28;20110;-63
2022/06/17 11:21:36;;;;;;;6.63;3.28;;;28.60;92.60;;;;;;5102569;28;20027;-63
2022/06/17 11:24:04;;;;;;;6.07;3.80;;;28.60;92.40;;;;;;5108881;28;20103;-63
2022/06/17 11:26:32;;;;;;;7.65;3.40;;;28.70;92.30;;;;;;5112075;28;20095;-63
2022/06/17 11:29:01;;;;;;;8.90;3.72;;;28.70;92.50;;;;;;5112242;28;20061;-63
2022/06/17 11:31:27;;;;;;;6.68;3.45;;;28.70;92.60;;;;;;5109940;28;20124;-63
2022/06/17 11:33:52;;;;;;;6.63;3.10;;;28.80;92.70;;;;;;5112609;28;20478;-63
2022/06/17 11:36:33;;;;;;;7.82;3.10;;;28.80;92.50;;;;;;5110535;28;20044;-63
2022/06/17 11:39:34;;;;;;;5.93;3.75;;;29.00;92.80;;;;;;5110581;28;20080;-63
2022/06/17 11:42:03;;;;;;;8.18;4.15;;;29.00;92.30;;;;;;5109145;28;20035;-63
2022/06/17 11:44:29;;;;;;;25.55;5.75;;;28.90;91.70;;;;;;5109392;28;20028;-62
2022/06/17 11:47:01;;;;;;;7.95;3.53;;;28.80;92.10;;;;;;5111147;28;20040;-62
2022/06/17 11:49:32;;;;;;;5.45;3.72;;;28.80;92.30;;;;;;5106387;28;20042;-64
2022/06/17 11:52:03;;;;;;;8.25;3.42;;;28.80;92.50;;;;;;5106868;28;20046;-63
2022/06/17 11:54:38;;;;;;;5.57;3.00;;;28.90;92.20;;;;;;5103411;28;20079;-63
2022/06/17 11:57:16;;;;;;;5.60;3.30;;;29.00;92.20;;;;;;5110639;28;20077;-65
2022/06/17 11:59:49;;;;;;;5.80;3.35;;;29.10;92.10;;;;;;5091749;28;20049;-63
2022/06/17 12:02:15;;;;;;;6.75;3.70;;;29.30;92.00;;;;;;5107131;28;20036;-62
2022/06/17 12:04:55;;;;;;;4.80;3.05;;;29.30;91.70;;;;;;5111274;28;20023;-63
2022/06/17 12:07:32;;;;;;;7.80;3.40;;;29.10;91.40;;;;;;5112305;28;20456;-63
2022/06/17 12:10:29;;;;;;;4.50;3.50;;;29.10;91.50;;;;;;5110396;28;20036;-63
2022/06/17 12:13:13;;;;;;;6.45;3.67;;;29.10;91.50;;;;;;5109273;28;20039;-63
2022/06/17 12:15:45;;;;;;;4.50;3.00;;;29.10;91.50;;;;;;5109360;28;20044;-62
2022/06/17 12:18:28;;;;;;;7.22;3.70;;;29.00;91.60;;;;;;5090812;28;20376;-63
2022/06/17 12:21:02;;;;;;;7.72;3.40;;;29.00;91.40;;;;;;5101397;28;20028;-63
2022/06/17 12:23:51;;;;;;;6.93;3.45;;;28.90;91.70;;;;;;5105416;28;20035;-63
2022/06/17 12:26:22;;;;;;;6.70;3.38;;;28.90;91.70;;;;;;5108693;28;20043;-62
2022/06/17 12:29:23;;;;;;;5.22;3.10;;;29.00;91.60;;;;;;5106715;28;20035;-63
2022/06/17 12:31:53;;;;;;;6.10;3.60;;;29.00;91.80;;;;;;5105228;28;20186;-64
2022/06/17 12:34:43;;;;;;;6.57;4.22;;;29.00;91.50;;;;;;5111304;28;20460;-63
2022/06/17 12:37:35;;;;;;;6.38;3.35;;;28.90;91.80;;;;;;5105265;28;20031;-64
2022/06/17 12:40:22;;;;;;;10.73;4.10;;;29.00;92.00;;;;;;5108901;28;20047;-63
2022/06/17 12:42:53;;;;;;;8.13;3.83;;;29.10;91.60;;;;;;5104514;28;20039;-63
2022/06/17 12:45:36;;;;;;;3.83;3.38;;;29.20;91.50;;;;;;5111078;28;20050;-63
2022/06/17 12:48:17;;;;;;;6.90;3.50;;;29.30;91.40;;;;;;5109600;28;20146;-62
2022/06/17 12:54:25;;;;;;;6.13;3.50;;;29.20;91.40;;;;;;5106512;28;20043;-63
2022/06/17 12:57:20;;;;;;;8.32;3.20;;;29.10;91.00;;;;;;5078098;28;20136;-63
2022/06/17 12:59:49;;;;;;;8.70;3.67;;;29.10;91.00;;;;;;5085889;28;20114;-63
2022/06/17 13:02:44;;;;;;;6.13;2.90;;;29.20;91.10;;;;;;5107503;28;20043;-63
2022/06/17 13:05:50;;;;;;;6.70;3.40;;;29.10;90.80;;;;;;5101087;28;20039;-64
2022/06/17 13:08:33;;;;;;;8.20;3.17;;;29.30;91.30;;;;;;5106120;28;20172;-62
2022/06/17 13:11:28;;;;;;;6.82;3.20;;;29.40;90.70;;;;;;5104696;28;20036;-63
2022/06/17 13:14:02;;;;;;;6.15;3.15;;;29.40;90.70;;;;;;5104428;28;20043;-63
2022/06/17 13:16:45;;;;;;;7.32;3.50;;;29.40;90.40;;;;;;5106941;28;20169;-62
2022/06/17 13:19:26;;;;;;;5.35;3.20;;;29.50;90.50;;;;;;5105826;28;20036;-62
2022/06/17 13:22:14;;;;;;;7.32;2.97;;;29.70;90.50;;;;;;5101938;28;20035;-63
2022/06/17 13:24:52;;;;;;;10.05;2.90;;;29.80;90.60;;;;;;5108425;28;20109;-64